Time;durP1;ratioP1;P1;durP2;ratioP2;P2;SDS_P1;SDS_P2;PMS_P1;PMS_P2;Temp;Humidity;BMP_temperature;BMP_pressure;BME280_temperature;BME280_humidity;BME280_pressure;Samples;Min_cycle;Max_cycle;Signal;HPM_P1;HPM_P2
2022/11/14 00:00:23;;;;;;;;;;;6.60;99.90;;;;;;5027189;28;20534;-63
2022/11/14 00:02:49;;;;;;;44.22;19.23;;;6.60;99.90;;;;;;5029720;28;19921;-64
2022/11/14 00:05:14;;;;;;;42.70;19.10;;;6.60;99.90;;;;;;5023536;28;20526;-68
2022/11/14 00:07:40;;;;;;;44.58;19.77;;;6.60;99.90;;;;;;5030793;28;20081;-64
2022/11/14 00:10:06;;;;;;;50.35;21.45;;;6.70;99.90;;;;;;5040883;28;20040;-63
2022/11/14 00:12:32;;;;;;;42.83;18.65;;;6.60;99.90;;;;;;5036869;28;20045;-63
2022/11/14 00:14:58;;;;;;;46.42;19.60;;;6.70;99.90;;;;;;5034364;28;20037;-64
2022/11/14 00:17:24;;;;;;;45.20;20.02;;;6.70;99.90;;;;;;5038379;28;20044;-64
2022/11/14 00:19:49;;;;;;;47.50;21.38;;;6.70;99.90;;;;;;5035582;28;20110;-63
2022/11/14 00:22:15;;;;;;;52.85;21.85;;;6.70;99.90;;;;;;5032676;28;20034;-65
2022/11/14 00:24:40;;;;;;;52.30;21.15;;;6.70;99.90;;;;;;5039663;28;20036;-63
2022/11/14 00:27:06;;;;;;;46.30;20.65;;;6.70;99.90;;;;;;5042257;28;20781;-64
2022/11/14 00:29:31;;;;;;;51.03;21.90;;;6.70;99.90;;;;;;5044844;28;20511;-64
2022/11/14 00:31:57;;;;;;;50.10;22.58;;;6.70;99.90;;;;;;5028872;28;20447;-63
2022/11/14 00:34:23;;;;;;;49.85;21.85;;;6.70;99.90;;;;;;5035971;28;20482;-64
2022/11/14 00:36:48;;;;;;;50.65;23.85;;;6.70;99.90;;;;;;5028666;28;20090;-64
2022/11/14 00:39:14;;;;;;;47.38;21.17;;;6.70;99.90;;;;;;5031968;28;20389;-65
2022/11/14 00:41:40;;;;;;;58.72;25.55;;;6.70;99.90;;;;;;5034668;28;20453;-63
2022/11/14 00:44:07;;;;;;;56.00;23.70;;;6.70;99.90;;;;;;5038567;28;20612;-63
2022/11/14 00:46:33;;;;;;;51.60;22.25;;;6.70;99.90;;;;;;5030885;28;20087;-64
2022/11/14 00:48:59;;;;;;;57.00;25.63;;;6.70;99.90;;;;;;5043497;28;20653;-63
2022/11/14 00:51:24;;;;;;;54.67;23.83;;;6.70;99.90;;;;;;5041323;28;20059;-64
2022/11/14 00:53:50;;;;;;;61.97;26.02;;;6.70;99.90;;;;;;5036389;28;20033;-63
2022/11/14 00:56:15;;;;;;;63.83;27.00;;;6.70;99.90;;;;;;5031854;28;20033;-63
2022/11/14 00:58:41;;;;;;;58.92;25.05;;;6.70;99.90;;;;;;5026171;28;20041;-64
2022/11/14 01:01:06;;;;;;;61.38;26.17;;;6.70;99.90;;;;;;5036064;28;20037;-64
2022/11/14 01:03:32;;;;;;;60.72;27.08;;;6.60;99.90;;;;;;5039177;28;20036;-64
2022/11/14 01:06:03;;;;;;;58.13;24.88;;;6.60;99.90;;;;;;5050339;28;20053;-63
2022/11/14 01:08:29;;;;;;;59.00;26.02;;;6.50;99.90;;;;;;5029055;28;20068;-63
2022/11/14 01:10:54;;;;;;;68.82;28.30;;;6.50;99.90;;;;;;5037666;28;20067;-64
2022/11/14 01:13:20;;;;;;;63.40;27.30;;;6.50;99.90;;;;;;5033058;28;20055;-63
2022/11/14 01:15:48;;;;;;;64.60;27.85;;;6.50;99.90;;;;;;5029501;28;20033;-64
2022/11/14 01:18:16;;;;;;;61.53;26.83;;;6.50;99.90;;;;;;5041005;28;20465;-64
2022/11/14 01:20:44;;;;;;;62.63;28.20;;;6.40;99.90;;;;;;5039693;28;20074;-63
2022/11/14 01:23:11;;;;;;;66.65;27.40;;;6.40;99.90;;;;;;5029857;28;20103;-64
2022/11/14 01:25:38;;;;;;;64.80;27.52;;;6.40;99.90;;;;;;5039943;28;20053;-63
2022/11/14 01:28:08;;;;;;;69.10;28.58;;;6.40;99.90;;;;;;5032697;28;20143;-64
2022/11/14 01:30:33;;;;;;;61.28;28.20;;;6.40;99.90;;;;;;5035733;28;20060;-63
2022/11/14 01:33:00;;;;;;;62.65;26.98;;;6.40;99.90;;;;;;5031202;28;20072;-63
2022/11/14 01:35:25;;;;;;;64.25;27.27;;;6.40;99.90;;;;;;5031952;28;20044;-63
2022/11/14 01:37:51;;;;;;;67.93;28.40;;;6.40;99.90;;;;;;5034408;28;20501;-65
2022/11/14 01:40:16;;;;;;;61.25;27.60;;;6.40;99.90;;;;;;5027666;28;20075;-64
2022/11/14 01:43:02;;;;;;;66.57;28.80;;;6.40;99.90;;;;;;5028949;28;20474;-64
2022/11/14 01:45:46;;;;;;;75.38;30.40;;;6.40;99.90;;;;;;5035091;28;20076;-63
2022/11/14 01:48:20;;;;;;;72.75;30.45;;;6.40;99.90;;;;;;5029346;28;20513;-63
2022/11/14 01:50:49;;;;;;;70.00;30.08;;;6.40;99.90;;;;;;5035582;28;20440;-64
2022/11/14 01:53:15;;;;;;;71.55;29.00;;;6.40;99.90;;;;;;5039904;28;20516;-63
2022/11/14 01:55:40;;;;;;;72.45;29.52;;;6.30;99.90;;;;;;5034634;28;20037;-63
2022/11/14 01:58:06;;;;;;;77.88;29.88;;;6.30;99.90;;;;;;5033672;28;20420;-63
2022/11/14 02:00:32;;;;;;;70.05;27.98;;;6.30;99.90;;;;;;5028677;28;20053;-64
2022/11/14 02:02:58;;;;;;;69.07;30.85;;;6.30;99.90;;;;;;5034748;28;20412;-64
2022/11/14 02:05:24;;;;;;;73.32;31.40;;;6.30;99.90;;;;;;5030215;28;20057;-63
2022/11/14 02:07:50;;;;;;;74.78;31.63;;;6.30;99.90;;;;;;5032413;28;20378;-64
2022/11/14 02:10:19;;;;;;;73.63;31.17;;;6.30;99.90;;;;;;5036063;28;20045;-63
2022/11/14 02:12:45;;;;;;;72.50;31.27;;;6.30;99.90;;;;;;5025711;28;20164;-63
2022/11/14 02:15:11;;;;;;;79.65;32.80;;;6.30;99.90;;;;;;5030127;28;20041;-64
2022/11/14 02:17:37;;;;;;;80.80;31.33;;;6.30;99.90;;;;;;5038819;28;20044;-65
2022/11/14 02:20:09;;;;;;;77.43;32.47;;;6.30;99.90;;;;;;5036793;28;20405;-64
2022/11/14 02:22:36;;;;;;;81.05;33.30;;;6.30;99.90;;;;;;5029531;28;20484;-64
2022/11/14 02:25:02;;;;;;;76.28;32.72;;;6.30;99.90;;;;;;5028783;28;20076;-64
2022/11/14 02:27:29;;;;;;;79.85;31.77;;;6.30;99.90;;;;;;5038346;28;20041;-64
2022/11/14 02:30:05;;;;;;;74.55;32.15;;;6.40;99.90;;;;;;5036497;28;20069;-63
2022/11/14 02:32:31;;;;;;;81.78;32.67;;;6.40;99.90;;;;;;5034240;28;20052;-63
2022/11/14 02:34:56;;;;;;;85.65;33.17;;;6.40;99.90;;;;;;5038555;28;20041;-63
2022/11/14 02:37:22;;;;;;;72.00;29.35;;;6.40;99.90;;;;;;5027919;28;20048;-63
2022/11/14 02:39:47;;;;;;;75.18;32.55;;;6.40;99.90;;;;;;5045278;28;20039;-64
2022/11/14 02:42:13;;;;;;;84.38;32.55;;;6.40;99.90;;;;;;5036651;28;20073;-65
2022/11/14 02:44:38;;;;;;;81.05;33.05;;;6.40;99.90;;;;;;5029013;28;20041;-64
2022/11/14 02:47:04;;;;;;;75.38;29.85;;;6.50;99.90;;;;;;5035538;28;20060;-64
2022/11/14 02:49:30;;;;;;;77.38;31.88;;;6.50;99.90;;;;;;5035910;28;20090;-64
2022/11/14 02:51:56;;;;;;;82.13;34.15;;;6.50;99.90;;;;;;5037848;28;20041;-64
2022/11/14 02:54:21;;;;;;;71.18;29.67;;;6.50;99.90;;;;;;5046490;28;20048;-62
2022/11/14 02:56:47;;;;;;;79.30;32.85;;;6.50;99.90;;;;;;5032020;28;20072;-65
2022/11/14 02:59:12;;;;;;;67.05;28.52;;;6.50;99.90;;;;;;5038258;28;20041;-62
2022/11/14 03:01:38;;;;;;;74.45;29.08;;;6.50;99.90;;;;;;5036138;28;20489;-65
2022/11/14 03:04:04;;;;;;;78.20;32.00;;;6.50;99.90;;;;;;5032662;28;20139;-64
2022/11/14 03:06:29;;;;;;;73.70;31.15;;;6.40;99.90;;;;;;5031159;28;20500;-63
2022/11/14 03:08:55;;;;;;;77.55;30.83;;;6.50;99.90;;;;;;5039273;28;20090;-63
2022/11/14 03:11:21;;;;;;;71.40;29.80;;;6.50;99.90;;;;;;5036365;28;20037;-63
2022/11/14 03:13:46;;;;;;;79.07;32.92;;;6.50;99.90;;;;;;5033941;28;20049;-64
2022/11/14 03:16:13;;;;;;;72.80;30.90;;;6.50;99.90;;;;;;5038829;28;20037;-64
2022/11/14 03:18:39;;;;;;;77.78;32.78;;;6.50;99.90;;;;;;5035766;28;20051;-64
2022/11/14 03:21:17;;;;;;;73.07;32.45;;;6.50;99.90;;;;;;5030630;28;20128;-63
2022/11/14 03:23:43;;;;;;;74.32;32.05;;;6.50;99.90;;;;;;5034407;28;20044;-64
2022/11/14 03:26:10;;;;;;;77.70;32.65;;;6.50;99.90;;;;;;5034806;28;20530;-64
2022/11/14 03:28:37;;;;;;;73.57;32.42;;;6.50;99.90;;;;;;5032524;28;20365;-63
2022/11/14 03:31:03;;;;;;;80.10;32.03;;;6.60;99.90;;;;;;5037813;28;20521;-64
2022/11/14 03:33:29;;;;;;;75.88;31.67;;;6.60;99.90;;;;;;5038024;28;20461;-63
2022/11/14 03:35:54;;;;;;;76.55;30.92;;;6.60;99.90;;;;;;5032140;28;20041;-63
2022/11/14 03:38:23;;;;;;;71.82;31.17;;;6.60;99.90;;;;;;5041924;28;20033;-63
2022/11/14 03:40:50;;;;;;;72.45;31.15;;;6.50;99.90;;;;;;5042460;28;20456;-63
2022/11/14 03:43:17;;;;;;;76.93;31.23;;;6.50;99.90;;;;;;5035803;28;20046;-64
2022/11/14 03:45:43;;;;;;;71.43;30.77;;;6.50;99.90;;;;;;5030873;28;20056;-64
2022/11/14 03:48:08;;;;;;;73.20;30.67;;;6.60;99.90;;;;;;5035739;28;20032;-63
2022/11/14 03:50:34;;;;;;;68.93;29.25;;;6.50;99.90;;;;;;5042417;28;20397;-65
2022/11/14 03:52:59;;;;;;;71.65;31.70;;;6.60;99.90;;;;;;5039857;28;20029;-63
2022/11/14 03:55:25;;;;;;;70.72;31.02;;;6.50;99.90;;;;;;5042711;28;20163;-63
2022/11/14 03:57:51;;;;;;;75.93;32.22;;;6.50;99.90;;;;;;5040016;28;20107;-63
2022/11/14 04:00:17;;;;;;;67.35;29.90;;;6.50;99.90;;;;;;5033774;28;20102;-64
2022/11/14 04:02:42;;;;;;;69.00;30.23;;;6.50;99.90;;;;;;5028866;28;20050;-64
2022/11/14 04:05:08;;;;;;;70.20;29.35;;;6.50;99.90;;;;;;5032211;28;20068;-63
2022/11/14 04:07:34;;;;;;;65.35;27.65;;;6.50;99.90;;;;;;5040746;28;20469;-65
2022/11/14 04:09:59;;;;;;;67.53;28.92;;;6.50;99.90;;;;;;5029493;28;20041;-63
2022/11/14 04:12:25;;;;;;;58.33;25.83;;;6.50;99.90;;;;;;5028135;28;20040;-64
2022/11/14 04:14:50;;;;;;;65.18;27.52;;;6.50;99.90;;;;;;5031558;28;20033;-63
2022/11/14 04:17:17;;;;;;;71.15;30.88;;;6.50;99.90;;;;;;5040235;28;20045;-64
2022/11/14 04:19:42;;;;;;;66.85;30.05;;;6.50;99.90;;;;;;5035651;28;20457;-63
2022/11/14 04:22:08;;;;;;;69.47;29.02;;;6.50;99.90;;;;;;5032243;28;20051;-63
2022/11/14 04:24:33;;;;;;;61.40;25.88;;;6.50;99.90;;;;;;5029890;28;20370;-64
2022/11/14 04:26:59;;;;;;;65.47;30.25;;;6.50;99.90;;;;;;5034788;28;20045;-63
2022/11/14 04:29:24;;;;;;;68.78;28.17;;;6.50;99.90;;;;;;5038360;28;20048;-63
2022/11/14 04:31:50;;;;;;;67.88;28.42;;;6.50;99.90;;;;;;5029914;28;20052;-64
2022/11/14 04:34:16;;;;;;;73.43;30.60;;;6.50;99.90;;;;;;5032280;28;20067;-63
2022/11/14 04:36:41;;;;;;;72.75;30.35;;;6.50;99.90;;;;;;5035386;28;20473;-65
2022/11/14 04:39:07;;;;;;;73.80;30.10;;;6.50;99.90;;;;;;5029922;28;20038;-64
2022/11/14 04:41:32;;;;;;;68.70;29.67;;;6.50;99.90;;;;;;5032279;28;20037;-63
2022/11/14 04:43:58;;;;;;;58.08;24.95;;;6.50;99.90;;;;;;5031791;28;20049;-64
2022/11/14 04:46:23;;;;;;;67.20;30.98;;;6.50;99.90;;;;;;5039905;28;20054;-63
2022/11/14 04:48:49;;;;;;;69.38;30.20;;;6.50;99.90;;;;;;5042078;28;20474;-63
2022/11/14 04:51:14;;;;;;;71.15;30.23;;;6.50;99.90;;;;;;5030699;28;20038;-65
2022/11/14 04:53:40;;;;;;;68.38;30.30;;;6.50;99.90;;;;;;5033970;28;20040;-64
2022/11/14 04:56:06;;;;;;;74.18;31.23;;;6.50;99.90;;;;;;5030866;28;20069;-63
2022/11/14 04:58:31;;;;;;;75.88;33.58;;;6.50;99.90;;;;;;5037561;28;20028;-64
2022/11/14 05:00:57;;;;;;;71.28;30.83;;;6.50;99.90;;;;;;5040562;28;20057;-64
2022/11/14 05:03:24;;;;;;;69.03;30.88;;;6.40;99.90;;;;;;5035657;28;20477;-63
2022/11/14 05:05:49;;;;;;;70.93;30.75;;;6.50;99.90;;;;;;5035726;28;20063;-64
2022/11/14 05:08:15;;;;;;;71.63;30.70;;;6.50;99.90;;;;;;5030391;28;20033;-64
2022/11/14 05:10:44;;;;;;;72.13;32.13;;;6.50;99.90;;;;;;5031378;28;20033;-64
2022/11/14 05:13:11;;;;;;;73.80;33.10;;;6.50;99.90;;;;;;5038687;28;20382;-64
2022/11/14 05:15:37;;;;;;;71.38;30.58;;;6.40;99.90;;;;;;5033205;28;20042;-64
2022/11/14 05:18:03;;;;;;;70.18;30.42;;;6.40;99.90;;;;;;5030095;28;20045;-65
2022/11/14 05:20:28;;;;;;;71.18;32.28;;;6.40;99.90;;;;;;5030836;28;20369;-64
2022/11/14 05:22:55;;;;;;;65.10;30.33;;;6.40;99.90;;;;;;5028141;28;20029;-64
2022/11/14 05:25:21;;;;;;;69.07;30.27;;;6.40;99.90;;;;;;5040914;28;20095;-63
2022/11/14 05:27:48;;;;;;;72.05;26.90;;;6.40;99.90;;;;;;5043905;28;20033;-65
2022/11/14 05:30:14;;;;;;;73.70;32.53;;;6.40;99.90;;;;;;5031627;28;20386;-63
2022/11/14 05:32:40;;;;;;;71.95;30.75;;;6.40;99.90;;;;;;5016434;28;21987;-64
2022/11/14 05:35:05;;;;;;;75.63;32.22;;;6.40;99.90;;;;;;5027905;28;20120;-63
2022/11/14 05:37:32;;;;;;;74.63;31.40;;;6.40;99.90;;;;;;5035354;28;20074;-62
2022/11/14 05:39:58;;;;;;;72.68;32.33;;;6.40;99.90;;;;;;5038096;28;20061;-64
2022/11/14 05:42:23;;;;;;;76.75;32.83;;;6.30;99.90;;;;;;5028692;28;20164;-63
2022/11/14 05:44:49;;;;;;;75.40;32.95;;;6.30;99.90;;;;;;5027224;28;20038;-63
2022/11/14 05:47:15;;;;;;;81.07;32.25;;;6.40;99.90;;;;;;5027468;28;20061;-65
2022/11/14 05:49:40;;;;;;;68.63;27.65;;;6.40;99.90;;;;;;5033604;28;20122;-64
2022/11/14 05:52:06;;;;;;;75.15;30.15;;;6.30;99.90;;;;;;5033887;28;20045;-64
2022/11/14 05:54:32;;;;;;;75.03;32.40;;;6.30;99.90;;;;;;5030274;28;20041;-64
2022/11/14 05:56:57;;;;;;;75.10;31.75;;;6.30;99.90;;;;;;5031558;28;20044;-63
2022/11/14 05:59:23;;;;;;;73.70;31.30;;;6.30;99.90;;;;;;5036429;28;20033;-64
2022/11/14 06:01:48;;;;;;;72.93;31.45;;;6.20;99.90;;;;;;5027229;28;20037;-63
2022/11/14 06:04:14;;;;;;;77.93;32.20;;;6.30;99.90;;;;;;5026465;28;20033;-63
2022/11/14 06:06:39;;;;;;;74.88;32.58;;;6.20;99.90;;;;;;5040067;28;20045;-64
2022/11/14 06:09:05;;;;;;;68.50;30.15;;;6.20;99.90;;;;;;5033216;28;20746;-63
2022/11/14 06:11:31;;;;;;;74.72;31.25;;;6.20;99.90;;;;;;5025973;28;20120;-64
2022/11/14 06:13:56;;;;;;;67.00;26.42;;;6.20;99.90;;;;;;5026662;28;20050;-64
2022/11/14 06:16:22;;;;;;;79.07;31.95;;;6.20;99.90;;;;;;5040407;28;20069;-64
2022/11/14 06:18:47;;;;;;;75.03;32.30;;;6.10;99.90;;;;;;5037935;28;20514;-64
2022/11/14 06:21:16;;;;;;;76.85;31.35;;;6.10;99.90;;;;;;5022360;28;20041;-64
2022/11/14 06:23:42;;;;;;;69.95;31.23;;;6.10;99.90;;;;;;5024756;28;20039;-63
2022/11/14 06:26:21;;;;;;;75.72;31.00;;;6.10;99.90;;;;;;5037654;28;20033;-64
2022/11/14 06:28:48;;;;;;;75.53;30.35;;;6.00;99.90;;;;;;5038694;28;20488;-63
2022/11/14 06:31:13;;;;;;;74.55;30.50;;;6.00;99.90;;;;;;5036012;28;20087;-64
2022/11/14 06:33:39;;;;;;;72.82;30.60;;;6.00;99.90;;;;;;5036609;28;20069;-63
2022/11/14 06:36:07;;;;;;;75.93;31.67;;;5.90;99.90;;;;;;5033846;28;20121;-64
2022/11/14 06:38:35;;;;;;;75.35;30.88;;;6.00;99.90;;;;;;5035917;28;20044;-63
2022/11/14 06:41:15;;;;;;;82.72;32.78;;;5.90;99.90;;;;;;5043321;28;20033;-64
2022/11/14 06:43:44;;;;;;;77.93;31.55;;;6.00;99.90;;;;;;5039102;28;20068;-64
2022/11/14 06:46:13;;;;;;;76.72;31.98;;;5.90;99.90;;;;;;5031686;28;20078;-64
2022/11/14 06:48:39;;;;;;;75.28;31.15;;;6.00;99.90;;;;;;5036887;28;20067;-64
2022/11/14 06:51:06;;;;;;;77.68;33.10;;;6.00;99.90;;;;;;5035556;28;20037;-64
2022/11/14 06:53:34;;;;;;;75.25;31.02;;;6.00;99.90;;;;;;5042784;28;20044;-64
2022/11/14 06:56:06;;;;;;;77.75;32.13;;;6.00;99.90;;;;;;5036729;28;20045;-63
2022/11/14 06:58:34;;;;;;;76.90;31.42;;;6.00;99.90;;;;;;5040671;28;20898;-63
2022/11/14 07:01:12;;;;;;;85.60;34.17;;;6.00;99.90;;;;;;5045566;28;20032;-65
2022/11/14 07:03:38;;;;;;;83.55;31.08;;;6.00;99.90;;;;;;5041815;28;20094;-64
2022/11/14 07:06:04;;;;;;;87.20;32.80;;;6.00;99.90;;;;;;5046531;28;20060;-64
2022/11/14 07:08:31;;;;;;;83.22;33.30;;;6.00;99.90;;;;;;5044880;28;20535;-63
2022/11/14 07:11:21;;;;;;;87.88;32.72;;;6.00;99.90;;;;;;5041232;28;20043;-64
2022/11/14 07:13:47;;;;;;;86.03;31.75;;;5.90;99.90;;;;;;5041338;28;20045;-64
2022/11/14 07:16:12;;;;;;;82.88;31.52;;;5.90;99.90;;;;;;5044112;28;20082;-64
2022/11/14 07:18:38;;;;;;;81.40;32.22;;;5.90;99.90;;;;;;5044755;28;20124;-65
2022/11/14 07:21:05;;;;;;;81.72;32.72;;;5.90;99.90;;;;;;5037178;28;20052;-65
2022/11/14 07:23:32;;;;;;;75.85;31.00;;;5.90;99.90;;;;;;5031282;28;20042;-62
2022/11/14 07:26:06;;;;;;;78.82;30.15;;;5.80;99.90;;;;;;5046417;28;20446;-64
2022/11/14 07:28:33;;;;;;;74.13;30.15;;;5.90;99.90;;;;;;5040342;28;20435;-64
2022/11/14 07:31:01;;;;;;;77.70;31.63;;;5.80;99.90;;;;;;5027139;28;20477;-64
2022/11/14 07:33:26;;;;;;;70.45;28.92;;;5.80;99.90;;;;;;5037000;28;20137;-65
2022/11/14 07:35:52;;;;;;;76.57;32.90;;;5.90;99.90;;;;;;5039319;28;20119;-63
2022/11/14 07:38:18;;;;;;;77.82;31.08;;;5.80;99.90;;;;;;5046278;28;20531;-64
2022/11/14 07:40:58;;;;;;;75.40;31.15;;;5.90;99.90;;;;;;5034210;28;20032;-64
2022/11/14 07:43:24;;;;;;;73.00;30.15;;;5.90;99.90;;;;;;5033162;28;20393;-64
2022/11/14 07:45:49;;;;;;;79.80;31.90;;;5.90;99.90;;;;;;5034148;28;20041;-63
2022/11/14 07:48:16;;;;;;;78.93;31.33;;;5.90;99.90;;;;;;5040020;28;20065;-64
2022/11/14 07:50:41;;;;;;;75.95;30.48;;;5.90;99.90;;;;;;5035821;28;20394;-63
2022/11/14 07:53:07;;;;;;;72.47;30.50;;;5.90;99.90;;;;;;5030210;28;20052;-64
2022/11/14 07:55:36;;;;;;;62.60;27.05;;;5.90;99.90;;;;;;5033000;28;20421;-64
2022/11/14 07:58:02;;;;;;;72.15;29.90;;;5.90;99.90;;;;;;5032617;28;20037;-63
2022/11/14 08:00:28;;;;;;;70.18;30.33;;;5.90;99.90;;;;;;5036534;28;20029;-63
2022/11/14 08:02:53;;;;;;;71.97;31.33;;;5.90;99.90;;;;;;5047147;28;20522;-63
2022/11/14 08:05:19;;;;;;;76.75;31.52;;;5.90;99.90;;;;;;5045434;28;20056;-63
2022/11/14 08:07:45;;;;;;;79.22;30.33;;;5.90;99.90;;;;;;5046760;28;20459;-63
2022/11/14 08:10:12;;;;;;;78.60;32.05;;;6.00;99.90;;;;;;5036730;28;20043;-64
2022/11/14 08:12:39;;;;;;;63.95;28.55;;;6.00;99.90;;;;;;5047744;28;20436;-65
2022/11/14 08:15:06;;;;;;;70.85;29.40;;;6.00;99.90;;;;;;5031893;28;20572;-64
2022/11/14 08:17:32;;;;;;;70.15;28.77;;;6.00;99.90;;;;;;5039638;28;20075;-63
2022/11/14 08:19:57;;;;;;;65.25;27.48;;;5.90;99.90;;;;;;5038553;28;20037;-64
2022/11/14 08:22:23;;;;;;;68.25;29.08;;;6.00;99.90;;;;;;5051475;28;20140;-63
2022/11/14 08:24:48;;;;;;;64.65;29.40;;;6.00;99.90;;;;;;5034811;28;20037;-63
2022/11/14 08:27:14;;;;;;;67.30;27.23;;;6.00;99.90;;;;;;5038744;28;20047;-63
2022/11/14 08:29:39;;;;;;;65.70;28.63;;;6.00;99.90;;;;;;5034957;28;20096;-64
2022/11/14 08:32:05;;;;;;;70.40;29.52;;;6.00;99.90;;;;;;5035561;28;20138;-65
2022/11/14 08:34:31;;;;;;;74.97;29.67;;;6.00;99.90;;;;;;5040846;28;20107;-64
2022/11/14 08:36:57;;;;;;;73.38;30.88;;;6.00;99.90;;;;;;5036008;28;20037;-63
2022/11/14 08:39:23;;;;;;;70.45;29.98;;;6.00;99.90;;;;;;5032837;28;22328;-63
2022/11/14 08:41:48;;;;;;;73.78;29.95;;;6.10;99.90;;;;;;5033127;28;20052;-64
2022/11/14 08:44:14;;;;;;;75.68;30.13;;;6.10;99.90;;;;;;5034996;28;20053;-65
2022/11/14 08:46:39;;;;;;;74.28;30.02;;;6.10;99.90;;;;;;5031469;28;20072;-64
2022/11/14 08:49:05;;;;;;;73.10;28.83;;;6.20;99.90;;;;;;5043799;28;20083;-64
2022/11/14 08:51:31;;;;;;;64.97;27.55;;;6.20;99.90;;;;;;5034187;28;20049;-64
2022/11/14 08:53:56;;;;;;;74.95;29.55;;;6.20;99.90;;;;;;5033840;28;20060;-64
2022/11/14 08:56:22;;;;;;;72.93;32.30;;;6.20;99.90;;;;;;5031506;28;20065;-65
2022/11/14 08:58:47;;;;;;;68.82;30.02;;;6.30;99.90;;;;;;5052548;28;20120;-65
2022/11/14 09:01:13;;;;;;;67.00;29.70;;;6.30;99.90;;;;;;5039851;28;20040;-64
2022/11/14 09:03:38;;;;;;;70.50;30.48;;;6.40;99.90;;;;;;5048377;28;20033;-63
2022/11/14 09:06:04;;;;;;;61.05;27.85;;;6.30;99.90;;;;;;5041227;28;20057;-63
2022/11/14 09:08:30;;;;;;;66.50;28.83;;;6.30;99.90;;;;;;5040329;28;20064;-64
2022/11/14 09:11:00;;;;;;;67.47;27.48;;;6.30;99.90;;;;;;5047004;28;20076;-64
2022/11/14 09:13:26;;;;;;;62.83;29.33;;;6.40;99.90;;;;;;5043112;28;20037;-64
2022/11/14 09:15:52;;;;;;;67.38;29.63;;;6.40;99.90;;;;;;5044628;28;20030;-64
2022/11/14 09:18:17;;;;;;;63.90;28.55;;;6.40;99.90;;;;;;5031702;28;20053;-64
2022/11/14 09:20:43;;;;;;;67.82;29.77;;;6.50;99.90;;;;;;5029343;28;20041;-65
2022/11/14 09:23:09;;;;;;;68.63;29.15;;;6.50;99.90;;;;;;5030421;28;20041;-64
2022/11/14 09:25:35;;;;;;;64.03;28.65;;;6.60;99.90;;;;;;5030491;28;20037;-65
2022/11/14 09:28:05;;;;;;;68.63;29.30;;;6.60;99.90;;;;;;5046648;28;20120;-65
2022/11/14 09:30:32;;;;;;;58.00;28.00;;;6.60;99.90;;;;;;5038505;28;20098;-65
2022/11/14 09:33:00;;;;;;;67.35;29.45;;;6.60;99.90;;;;;;5029644;28;20041;-64
2022/11/14 09:35:26;;;;;;;67.00;28.63;;;6.70;99.90;;;;;;5043267;28;20416;-63
2022/11/14 09:38:12;;;;;;;69.03;30.38;;;6.70;99.90;;;;;;5029614;28;20065;-65
2022/11/14 09:40:46;;;;;;;62.17;28.80;;;6.80;99.90;;;;;;5029837;28;20045;-64
2022/11/14 09:43:49;;;;;;;62.63;28.13;;;6.90;99.90;;;;;;5036351;28;20048;-65
2022/11/14 09:46:24;;;;;;;70.60;28.88;;;6.90;99.90;;;;;;5031561;28;20076;-64
2022/11/14 09:48:52;;;;;;;65.30;29.02;;;7.00;99.90;;;;;;5031861;28;20033;-65
2022/11/14 09:51:23;;;;;;;62.17;28.50;;;7.00;99.90;;;;;;5037709;28;20045;-64
2022/11/14 09:54:05;;;;;;;62.33;28.52;;;7.00;99.90;;;;;;5030854;28;20052;-65
2022/11/14 09:56:31;;;;;;;59.30;27.10;;;7.00;99.90;;;;;;5040676;28;20366;-64
2022/11/14 09:58:57;;;;;;;61.72;27.30;;;7.10;99.90;;;;;;5035876;28;20072;-65
2022/11/14 10:01:28;;;;;;;54.85;24.48;;;7.10;99.90;;;;;;5029076;28;20134;-66
2022/11/14 10:04:24;;;;;;;60.50;27.63;;;7.30;99.90;;;;;;5031239;28;20465;-64
2022/11/14 10:06:50;;;;;;;56.95;26.50;;;7.40;99.90;;;;;;5039743;28;20061;-64
2022/11/14 10:09:47;;;;;;;60.80;27.08;;;7.60;99.90;;;;;;5032023;28;20069;-64
2022/11/14 10:12:39;;;;;;;52.50;26.60;;;7.70;99.90;;;;;;5032630;28;20179;-66
2022/11/14 10:15:35;;;;;;;58.70;26.42;;;7.80;99.90;;;;;;5029448;28;20050;-66
2022/11/14 10:18:17;;;;;;;52.42;24.30;;;7.70;99.90;;;;;;5031196;28;20042;-64
2022/11/14 10:20:50;;;;;;;53.00;26.00;;;7.60;99.90;;;;;;5032201;28;20037;-65
2022/11/14 10:23:16;;;;;;;55.35;25.83;;;7.50;99.90;;;;;;5034321;28;20037;-65
2022/11/14 10:25:47;;;;;;;54.42;25.63;;;7.50;99.90;;;;;;5030320;28;20579;-65
2022/11/14 10:28:19;;;;;;;50.65;23.75;;;7.50;99.90;;;;;;5029765;28;20041;-66
2022/11/14 10:30:56;;;;;;;51.88;26.00;;;7.40;99.90;;;;;;5044246;28;20045;-65
2022/11/14 10:33:59;;;;;;;50.47;24.27;;;7.30;99.90;;;;;;5046058;28;20053;-66
2022/11/14 10:37:05;;;;;;;50.13;22.88;;;7.30;99.90;;;;;;5048882;28;20039;-65
2022/11/14 10:39:41;;;;;;;49.05;23.45;;;7.30;99.90;;;;;;5031609;28;20619;-65
2022/11/14 10:42:30;;;;;;;48.63;23.23;;;7.30;99.90;;;;;;5029909;28;20057;-64
2022/11/14 10:45:26;;;;;;;51.58;25.42;;;7.30;99.90;;;;;;5032222;28;20041;-66
2022/11/14 10:48:08;;;;;;;54.90;26.17;;;7.30;99.90;;;;;;5030427;28;20096;-64
2022/11/14 10:50:41;;;;;;;53.10;25.67;;;7.30;99.90;;;;;;5030245;28;20790;-65
2022/11/14 10:53:18;;;;;;;51.80;25.65;;;7.30;99.90;;;;;;5029537;28;20087;-65
2022/11/14 10:55:48;;;;;;;51.22;25.25;;;7.30;99.90;;;;;;5047739;28;20116;-65
2022/11/14 10:58:14;;;;;;;52.53;24.88;;;7.30;99.90;;;;;;5043933;28;20033;-64
2022/11/14 11:00:39;;;;;;;52.83;25.77;;;7.30;99.90;;;;;;5045092;28;20037;-66
2022/11/14 11:03:06;;;;;;;52.40;26.27;;;7.40;99.90;;;;;;5038778;28;20041;-65
2022/11/14 11:05:58;;;;;;;56.33;27.02;;;7.40;99.90;;;;;;5050556;28;20431;-66
2022/11/14 11:11:28;;;;;;;53.42;25.52;;;7.50;99.90;;;;;;5047665;28;20045;-66
2022/11/14 11:13:56;;;;;;;55.35;25.60;;;7.60;99.90;;;;;;5045782;28;20049;-65
2022/11/14 11:16:24;;;;;;;55.05;26.67;;;7.60;99.90;;;;;;5067293;28;20123;-65
2022/11/14 11:18:49;;;;;;;50.67;22.48;;;7.70;99.90;;;;;;5041996;28;20033;-65
2022/11/14 11:21:20;;;;;;;57.63;26.83;;;7.80;99.90;;;;;;5047227;28;20039;-65
2022/11/14 11:23:51;;;;;;;50.38;24.98;;;7.90;99.90;;;;;;5056715;28;20037;-65
2022/11/14 11:26:20;;;;;;;52.55;25.77;;;7.90;99.90;;;;;;5051234;28;20440;-64
2022/11/14 11:29:02;;;;;;;54.95;25.92;;;7.90;99.90;;;;;;5070700;28;20748;-65
2022/11/14 11:31:47;;;;;;;52.45;25.80;;;8.10;99.90;;;;;;5050077;28;20515;-65
2022/11/14 11:34:13;;;;;;;48.80;22.58;;;8.10;99.90;;;;;;5045291;28;20037;-66
2022/11/14 11:36:47;;;;;;;55.50;25.92;;;8.20;99.90;;;;;;5041721;28;20037;-65
2022/11/14 11:39:26;;;;;;;53.72;25.20;;;8.20;99.90;;;;;;5042947;28;20097;-64
2022/11/14 11:41:56;;;;;;;50.67;23.88;;;8.10;99.90;;;;;;5043827;28;20045;-66
2022/11/14 11:44:34;;;;;;;53.97;25.03;;;8.00;99.90;;;;;;5039369;28;20051;-65
2022/11/14 11:47:02;;;;;;;50.53;25.65;;;8.00;99.90;;;;;;5047902;28;20036;-61
2022/11/14 11:49:46;;;;;;;47.00;24.45;;;8.00;99.90;;;;;;5040661;28;20120;-66
2022/11/14 11:52:18;;;;;;;49.63;24.50;;;8.00;99.90;;;;;;5037202;28;20365;-66
2022/11/14 11:54:56;;;;;;;45.38;22.92;;;8.00;99.90;;;;;;5042379;28;20044;-65
2022/11/14 11:57:28;;;;;;;52.20;24.48;;;8.00;99.90;;;;;;5039600;28;20045;-67
2022/11/14 12:00:06;;;;;;;49.15;22.60;;;8.00;99.90;;;;;;5034755;28;20753;-67
2022/11/14 12:02:35;;;;;;;49.95;23.73;;;8.10;99.90;;;;;;5033285;28;20049;-65
2022/11/14 12:05:00;;;;;;;50.78;25.77;;;8.10;99.90;;;;;;5034882;28;20175;-66
2022/11/14 12:07:55;;;;;;;45.40;23.98;;;8.10;99.90;;;;;;5044091;28;20682;-67
2022/11/14 12:10:28;;;;;;;50.67;23.55;;;8.20;99.90;;;;;;5046152;28;20041;-68
2022/11/14 12:13:13;;;;;;;48.70;23.40;;;8.20;99.90;;;;;;5049972;28;20052;-67
2022/11/14 12:16:16;;;;;;;49.53;24.60;;;8.30;99.90;;;;;;5043993;28;20045;-67
2022/11/14 12:19:07;;;;;;;49.13;23.77;;;8.30;99.90;;;;;;5044453;28;20052;-66
2022/11/14 12:21:49;;;;;;;49.25;24.90;;;8.30;99.90;;;;;;5027341;28;20049;-66
2022/11/14 12:24:49;;;;;;;47.30;22.88;;;8.30;99.90;;;;;;5019062;28;20056;-66
2022/11/14 12:27:27;;;;;;;51.00;24.58;;;8.40;99.90;;;;;;5031906;28;20047;-64
2022/11/14 12:30:15;;;;;;;50.67;23.77;;;8.40;99.90;;;;;;5048325;28;20056;-65
2022/11/14 12:33:13;;;;;;;45.40;22.48;;;8.40;99.90;;;;;;5047841;28;20039;-65
2022/11/14 12:35:51;;;;;;;46.58;23.10;;;8.40;99.90;;;;;;5040565;28;20057;-66
2022/11/14 12:38:19;;;;;;;46.33;22.65;;;8.50;99.90;;;;;;5036528;28;20056;-65
2022/11/14 12:40:54;;;;;;;42.80;22.13;;;8.50;99.90;;;;;;5045867;28;20346;-66
2022/11/14 12:43:35;;;;;;;42.33;21.38;;;8.40;99.90;;;;;;5035744;28;20056;-65
2022/11/14 12:46:10;;;;;;;44.45;22.58;;;8.50;99.90;;;;;;5041524;28;20123;-67
2022/11/14 12:48:43;;;;;;;42.72;22.55;;;8.50;99.90;;;;;;5046188;28;20037;-66
2022/11/14 12:51:24;;;;;;;41.15;22.52;;;8.50;99.90;;;;;;5049577;28;20040;-67